»·PEaware :: WAT380 KSEA-KMFR

WAT380 :: KSEA-KMFR

FLIGHT INFORMATION

Flight Status: Arrived
Operator:
Walker Air Transport
More flights by this operator :: More flights under this callsign
Pilot: Spencer M. (27733)
Aircraft: BEECH AIRCRAFT SUPER KING AIR 350
(B350)
More flights by this aircraft type
Origin: KSEA Seattle-Tacoma Intl
United States
Destination: KMFR Rogue Valley Intl-Medford
United States
More flights between these airports :: More routes between these airports
Route: +ELMAA3 CVO V481 EUG V23 OED
File this flight plan on PilotEdge
Remarks:
Altitude:
(Current/Filed)
23,000ft
Speed:
(Current/Filed)
280kts
Departed: 20-Nov-20 10:16 AM
Arrived: 20-Nov-20 11:36 AM
Distance/Time
Traveled:
306nm/1:20
Distance/Time
To Go:
Arrived

Flight Plot

Page will automatically refresh every two minutes.

Flight plan parsing failed; only flown route is shown


Map Options




Map Legend


Flown Route
Filed Route
Departure Airport
Arrival Airport
Navaid (VOR, NDB)
Fix

Horizontal Profiles

Position Reports

Time Latitude Longitude Heading Altitude Ground
Speed
20-Nov-20 09:52 47.449211 -122.302613 197 438ft 0kts
20-Nov-20 09:53 47.449211 -122.302613 197 438ft 0kts
20-Nov-20 09:54 47.449211 -122.302613 197 438ft 0kts
20-Nov-20 09:55 47.449211 -122.302613 197 438ft 0kts
20-Nov-20 09:56 47.449211 -122.302613 197 438ft 0kts
20-Nov-20 09:57 47.449211 -122.302613 197 438ft 0kts
20-Nov-20 09:58 47.449211 -122.302613 197 438ft 0kts
20-Nov-20 09:59 47.449211 -122.302613 197 438ft 0kts
20-Nov-20 10:00 47.449211 -122.302613 197 438ft 0kts
20-Nov-20 10:01 47.449211 -122.302613 197 438ft 0kts
20-Nov-20 10:02 47.449211 -122.302613 197 438ft 0kts
20-Nov-20 10:03 47.449211 -122.302613 197 438ft 0kts
20-Nov-20 10:04 47.449211 -122.302613 197 438ft 0kts
20-Nov-20 10:05 47.449211 -122.302613 197 438ft 0kts
20-Nov-20 10:06 47.449211 -122.302613 197 438ft 0kts
20-Nov-20 10:07 47.449211 -122.302613 197 438ft 0kts
20-Nov-20 10:08 47.449903 -122.303955 318 438ft 10kts
20-Nov-20 10:09 47.453905 -122.306204 1 438ft 24kts
20-Nov-20 10:10 47.459613 -122.306161 0 438ft 21kts
20-Nov-20 10:11 47.463725 -122.306475 294 438ft 0kts
20-Nov-20 10:12 47.463725 -122.306475 294 438ft 0kts
20-Nov-20 10:13 47.463725 -122.306475 294 438ft 0kts
20-Nov-20 10:14 47.463043 -122.307711 187 438ft 24kts
20-Nov-20 10:15 47.429073 -122.308868 188 1382ft 169kts
20-Nov-20 10:16 47.375454 -122.317708 180 2446ft 218kts
20-Nov-20 10:17 47.328399 -122.359285 266 3068ft 238kts
20-Nov-20 10:18 47.327204 -122.454894 266 4081ft 226kts
20-Nov-20 10:19 47.327506 -122.548654 266 5536ft 216kts
20-Nov-20 10:20 47.328357 -122.643437 267 7129ft 215kts
20-Nov-20 10:21 47.321160 -122.735504 248 8727ft 207kts
20-Nov-20 10:22 47.301146 -122.818656 248 10280ft 206kts
20-Nov-20 10:23 47.280926 -122.896751 248 11761ft 203kts
20-Nov-20 10:24 47.260425 -122.974371 249 13261ft 205kts
20-Nov-20 10:25 47.239661 -123.052343 249 14750ft 204kts
20-Nov-20 10:26 47.199975 -123.099409 184 16222ft 219kts
20-Nov-20 10:27 47.139777 -123.100038 190 17617ft 217kts
20-Nov-20 10:28 47.078495 -123.104580 191 18925ft 219kts
20-Nov-20 10:29 47.018255 -123.109159 191 20199ft 217kts
20-Nov-20 10:30 46.958423 -123.113665 192 21473ft 213kts
20-Nov-20 10:31 46.900280 -123.117979 192 22728ft 204kts
20-Nov-20 10:32 46.843992 -123.122360 192 23494ft 216kts
20-Nov-20 10:33 46.778877 -123.127756 191 23495ft 250kts
20-Nov-20 10:34 46.706624 -123.133349 190 23497ft 268kts
20-Nov-20 10:35 46.630910 -123.139144 190 23494ft 277kts
20-Nov-20 10:36 46.553726 -123.145014 190 23493ft 281kts
20-Nov-20 10:37 46.475484 -123.150932 190 23492ft 283kts
20-Nov-20 10:38 46.396752 -123.156862 190 23492ft 284kts
20-Nov-20 10:39 46.317797 -123.162791 190 23492ft 285kts
20-Nov-20 10:40 46.238631 -123.168716 190 23492ft 285kts
20-Nov-20 10:41 46.159480 -123.174625 190 23484ft 285kts
20-Nov-20 10:42 46.080438 -123.180504 190 23474ft 286kts
20-Nov-20 10:43 46.000996 -123.186393 190 23473ft 286kts
20-Nov-20 10:44 45.921738 -123.192249 189 23473ft 286kts
20-Nov-20 10:45 45.842267 -123.198107 189 23473ft 286kts
20-Nov-20 10:46 45.762852 -123.203946 189 23473ft 286kts
20-Nov-20 10:47 45.683106 -123.209793 189 23473ft 287kts
20-Nov-20 10:48 45.603564 -123.215609 189 23473ft 287kts
20-Nov-20 10:49 45.524077 -123.221399 189 23492ft 286kts
20-Nov-20 10:50 45.444985 -123.227147 189 23514ft 286kts
20-Nov-20 10:51 45.365565 -123.232908 189 23519ft 286kts
20-Nov-20 10:52 45.285900 -123.238673 189 23519ft 286kts
20-Nov-20 10:53 45.206584 -123.244388 189 23519ft 287kts
20-Nov-20 10:54 45.126768 -123.250122 189 23518ft 287kts
20-Nov-20 10:55 45.047114 -123.255831 189 23526ft 287kts
20-Nov-20 10:56 44.967367 -123.261536 189 23535ft 287kts
20-Nov-20 10:57 44.887622 -123.267230 189 23537ft 288kts
20-Nov-20 10:58 44.807581 -123.272915 189 23537ft 288kts
20-Nov-20 10:59 44.727650 -123.278579 189 23537ft 288kts
20-Nov-20 11:00 44.647994 -123.284209 189 23537ft 288kts
20-Nov-20 11:01 44.567998 -123.289847 189 23537ft 288kts
20-Nov-20 11:02 44.487747 -123.292308 181 23535ft 292kts
20-Nov-20 11:03 44.406837 -123.277918 178 23526ft 294kts
20-Nov-20 11:04 44.325738 -123.262744 178 23512ft 294kts
20-Nov-20 11:05 44.244627 -123.247582 178 23509ft 294kts
20-Nov-20 11:06 44.163671 -123.232495 178 23510ft 294kts
20-Nov-20 11:07 44.082705 -123.217256 178 23510ft 294kts
20-Nov-20 11:08 44.001551 -123.201451 178 23509ft 295kts
20-Nov-20 11:09 43.920640 -123.185803 178 23510ft 295kts
20-Nov-20 11:10 43.839164 -123.170121 178 23510ft 295kts
20-Nov-20 11:11 43.756916 -123.154531 178 22899ft 308kts
20-Nov-20 11:12 43.670985 -123.138466 177 21323ft 316kts
20-Nov-20 11:13 43.584291 -123.122087 176 19717ft 312kts
20-Nov-20 11:14 43.499244 -123.105971 176 18115ft 308kts
20-Nov-20 11:15 43.415072 -123.088439 174 16512ft 304kts
20-Nov-20 11:16 43.332383 -123.071762 175 14915ft 299kts
20-Nov-20 11:18 43.251333 -123.056392 174 13142ft 289kts
20-Nov-20 11:19 43.173737 -123.041822 173 11236ft 275kts
20-Nov-20 11:20 43.100809 -123.028099 171 9980ft 248kts
20-Nov-20 11:21 43.034218 -123.015464 172 9977ft 237kts
20-Nov-20 11:22 42.970740 -123.010976 201 9917ft 224kts
20-Nov-20 11:23 42.911638 -123.033909 176 8843ft 223kts
20-Nov-20 11:24 42.851754 -123.028599 174 7626ft 211kts
20-Nov-20 11:25 42.796715 -123.024837 175 7171ft 185kts
20-Nov-20 11:26 42.744923 -123.021673 175 7170ft 186kts
20-Nov-20 11:27 42.693683 -123.018480 175 7131ft 181kts
20-Nov-20 11:28 42.644281 -123.013976 168 6999ft 176kts
20-Nov-20 11:29 42.598329 -122.994953 156 6526ft 172kts
20-Nov-20 11:30 42.554173 -122.968070 152 5429ft 177kts
20-Nov-20 11:31 42.508066 -122.940902 156 4231ft 180kts
20-Nov-20 11:32 42.462356 -122.920466 162 3007ft 133kts
20-Nov-20 11:33 42.430496 -122.904797 150 2639ft 100kts
20-Nov-20 11:34 42.407241 -122.889499 161 2018ft 105kts
20-Nov-20 11:34 42.384393 -122.878144 159 1351ft 100kts
20-Nov-20 11:36 42.375681 -122.875297 171 1338ft 11kts
20-Nov-20 11:36 42.371919 -122.875312 216 1338ft 13kts
20-Nov-20 11:37 42.371149 -122.876428 205 1338ft 0kts
20-Nov-20 11:38 42.371149 -122.876428 205 1338ft 0kts

Navigation Log

Ident Type
Flight plan parsing failed, navigation log unavailable